Time;durP1;ratioP1;P1;durP2;ratioP2;P2;SDS_P1;SDS_P2;PMS_P1;PMS_P2;Temp;Humidity;BMP_temperature;BMP_pressure;BME280_temperature;BME280_humidity;BME280_pressure;Samples;Min_cycle;Max_cycle;Signal;HPM_P1;HPM_P2
2022/02/01 00:01:42;;;;;;;1.77;0.70;;;7.40;99.90;;;;;;6206904;23;20180;-92
2022/02/01 00:04:20;;;;;;;2.10;0.90;;;7.40;99.90;;;;;;6207502;23;20165;-93
2022/02/01 00:07:00;;;;;;;1.83;1.00;;;7.40;99.90;;;;;;6207397;23;20203;-92
2022/02/01 00:09:39;;;;;;;3.93;0.90;;;7.40;99.90;;;;;;6181716;23;20201;-93
2022/02/01 00:12:19;;;;;;;2.57;0.93;;;7.40;99.90;;;;;;6206763;23;20175;-93
2022/02/01 00:15:18;;;;;;;2.67;1.00;;;7.30;99.90;;;;;;6184567;23;20200;-94
2022/02/01 00:18:12;;;;;;;2.07;0.80;;;7.30;99.90;;;;;;6208298;23;20181;-94
2022/02/01 00:39:59;;;;;;;2.80;0.90;;;6.60;99.90;;;;;;6148564;23;20222;-92
2022/02/01 00:42:31;;;;;;;1.30;0.70;;;6.60;99.90;;;;;;6148278;23;20197;-93
2022/02/01 00:45:02;;;;;;;3.67;1.20;;;6.40;99.90;;;;;;6153399;23;20203;-92
2022/02/01 00:47:34;;;;;;;1.43;0.90;;;6.30;99.90;;;;;;6152688;23;20200;-88
2022/02/01 00:55:31;;;;;;;4.03;1.10;;;6.00;99.90;;;;;;6209869;23;20183;-93
2022/02/01 00:58:02;;;;;;;1.47;1.13;;;5.90;99.90;;;;;;6206520;23;20179;-94
2022/02/01 01:00:33;;;;;;;2.63;1.40;;;5.90;99.90;;;;;;6208019;23;20172;-94
2022/02/01 01:03:06;;;;;;;1.20;0.90;;;5.80;99.90;;;;;;6207904;23;20173;-94
2022/02/01 01:05:38;;;;;;;4.57;1.37;;;5.80;99.90;;;;;;6203363;23;20175;-94
2022/02/01 01:08:09;;;;;;;2.77;1.03;;;5.80;99.90;;;;;;6177724;23;20188;-93
2022/02/01 01:10:44;;;;;;;2.70;1.40;;;5.80;99.90;;;;;;6204245;23;20169;-92
2022/02/01 01:13:35;;;;;;;2.47;1.03;;;5.80;99.90;;;;;;6207018;23;20171;-93
2022/02/01 01:16:19;;;;;;;2.30;1.07;;;5.80;99.90;;;;;;6205146;23;20170;-93
2022/02/01 01:44:25;;;;;;;2.63;0.80;;;5.60;99.90;;;;;;6181663;23;20177;-93
2022/02/01 01:55:36;;;;;;;2.50;0.90;;;5.20;99.90;;;;;;6147191;23;20193;-93
2022/02/01 01:58:08;;;;;;;2.67;0.80;;;5.10;99.90;;;;;;6146296;23;20178;-93
2022/02/01 02:03:30;;;;;;;2.50;1.00;;;4.90;99.90;;;;;;6207232;23;20188;-92
2022/02/01 02:06:02;;;;;;;2.17;1.07;;;4.90;99.90;;;;;;6213004;23;20164;-91
2022/02/01 02:08:34;;;;;;;2.87;1.33;;;4.80;99.90;;;;;;6209285;23;20208;-92
2022/02/01 02:11:09;;;;;;;3.63;1.27;;;4.80;99.90;;;;;;6211560;23;20169;-93
2022/02/01 02:16:44;;;;;;;5.53;1.40;;;4.80;99.90;;;;;;6204058;23;20181;-93
2022/02/01 02:19:16;;;;;;;2.83;1.10;;;4.70;99.90;;;;;;6206610;23;20215;-92
2022/02/01 02:21:52;;;;;;;8.53;1.77;;;4.70;99.90;;;;;;6211568;23;20204;-92
2022/02/01 02:24:26;;;;;;;5.30;1.93;;;4.60;99.90;;;;;;6206248;23;20167;-93
2022/02/01 02:26:59;;;;;;;2.50;1.50;;;4.50;99.90;;;;;;6205207;23;20173;-92
2022/02/01 02:29:32;;;;;;;4.10;1.80;;;4.60;99.90;;;;;;6210642;23;20634;-91
2022/02/01 02:34:47;;;;;;;4.87;1.90;;;4.70;99.90;;;;;;6292625;22;20293;-94
2022/02/01 02:37:28;;;;;;;5.03;1.87;;;4.70;99.90;;;;;;6301412;22;20198;-93
2022/02/01 02:40:16;;;;;;;3.83;2.40;;;4.80;99.90;;;;;;6299358;22;20164;-93
2022/02/01 02:45:35;;;;;;;6.07;2.27;;;4.90;99.90;;;;;;6297305;22;20175;-92
2022/02/01 02:48:07;;;;;;;4.37;2.97;;;5.00;99.90;;;;;;6295586;22;20575;-92
2022/02/01 02:50:38;;;;;;;3.47;2.20;;;5.00;99.90;;;;;;6297975;22;20186;-92
2022/02/01 02:53:12;;;;;;;4.40;2.10;;;4.90;99.90;;;;;;6298121;22;20167;-93
2022/02/01 02:55:43;;;;;;;5.10;2.17;;;4.90;99.90;;;;;;6298798;22;20167;-93
2022/02/01 02:58:14;;;;;;;3.60;1.90;;;4.90;99.90;;;;;;6299099;22;20175;-92
2022/02/01 03:00:47;;;;;;;3.93;1.90;;;4.90;99.90;;;;;;6293814;22;20171;-92
2022/02/01 03:03:19;;;;;;;3.60;2.03;;;5.00;99.90;;;;;;6301674;22;20167;-91
2022/02/01 03:05:50;;;;;;;4.30;1.73;;;5.00;99.90;;;;;;6304902;22;20186;-91
2022/02/01 03:08:24;;;;;;;3.57;1.93;;;5.00;99.90;;;;;;6303745;22;20197;-92
2022/02/01 03:10:56;;;;;;;5.60;2.00;;;5.10;99.90;;;;;;6302882;22;20174;-92
2022/02/01 03:13:30;;;;;;;5.03;1.63;;;5.10;99.90;;;;;;6302228;22;20164;-90
2022/02/01 03:16:07;;;;;;;5.03;1.63;;;5.00;99.90;;;;;;6300568;22;20314;-92
2022/02/01 03:21:26;;;;;;;5.20;1.30;;;5.10;99.90;;;;;;6298289;22;20179;-94
2022/02/01 03:24:00;;;;;;;2.23;1.60;;;5.20;99.90;;;;;;6298867;22;20210;-93
2022/02/01 03:26:33;;;;;;;2.30;1.43;;;5.20;99.90;;;;;;6296450;22;20186;-96
2022/02/01 03:29:05;;;;;;;4.27;1.47;;;5.20;99.90;;;;;;6298838;22;20209;-94
2022/02/01 03:31:36;;;;;;;4.20;1.03;;;5.10;99.90;;;;;;6298552;22;20167;-93
2022/02/01 03:34:15;;;;;;;2.93;1.20;;;5.00;99.90;;;;;;6298461;22;20239;-91
2022/02/01 03:36:46;;;;;;;2.27;1.13;;;5.00;99.90;;;;;;6295744;22;20171;-92
2022/02/01 03:39:21;;;;;;;3.57;1.10;;;4.90;99.90;;;;;;6297643;22;20294;-92
2022/02/01 03:41:54;;;;;;;3.13;1.10;;;4.80;99.90;;;;;;6295433;22;20171;-93
2022/02/01 03:44:27;;;;;;;2.03;0.90;;;4.80;99.90;;;;;;6296263;22;20219;-93
2022/02/01 03:47:01;;;;;;;2.57;1.20;;;4.70;99.90;;;;;;6297243;22;20177;-93
2022/02/01 03:49:34;;;;;;;2.30;1.20;;;4.60;99.90;;;;;;6295599;22;20201;-93
2022/02/01 03:52:07;;;;;;;1.70;0.93;;;4.50;99.90;;;;;;6299076;22;20175;-93
2022/02/01 04:00:08;;;;;;;6.50;1.50;;;4.30;99.90;;;;;;6242294;23;20189;-93
2022/02/01 04:02:39;;;;;;;4.67;1.23;;;4.30;99.90;;;;;;6242091;23;20160;-92
2022/02/01 04:05:12;;;;;;;2.30;1.40;;;4.30;99.90;;;;;;6239634;23;20156;-92
2022/02/01 04:07:46;;;;;;;2.63;1.50;;;4.20;99.90;;;;;;6215951;23;20160;-92
2022/02/01 04:10:20;;;;;;;4.97;1.93;;;4.30;99.90;;;;;;6242506;23;20167;-92
2022/02/01 04:12:53;;;;;;;5.87;2.27;;;4.20;99.90;;;;;;6240585;23;20686;-92
2022/02/01 04:15:26;;;;;;;7.03;2.70;;;4.20;99.90;;;;;;6235502;23;20192;-92
2022/02/01 04:17:59;;;;;;;8.13;3.13;;;4.20;99.90;;;;;;6238009;23;20168;-93
2022/02/01 04:20:30;;;;;;;8.33;2.93;;;4.20;99.90;;;;;;6242609;23;20175;-91
2022/02/01 04:23:02;;;;;;;6.00;2.70;;;4.20;99.90;;;;;;6242531;23;20187;-91
2022/02/01 04:25:36;;;;;;;5.63;2.57;;;4.30;99.90;;;;;;6217350;23;20156;-91
2022/02/01 04:28:07;;;;;;;6.77;2.57;;;4.30;99.90;;;;;;6240640;23;20173;-92
2022/02/01 04:30:39;;;;;;;3.97;1.70;;;4.30;99.90;;;;;;6237022;23;20168;-92
2022/02/01 04:33:12;;;;;;;3.03;1.53;;;4.40;99.90;;;;;;6237561;23;20164;-92
2022/02/01 04:35:43;;;;;;;5.90;2.10;;;4.30;99.90;;;;;;6236545;23;20173;-92
2022/02/01 04:38:16;;;;;;;4.50;2.10;;;4.30;99.90;;;;;;6236625;23;20164;-92
2022/02/01 04:40:52;;;;;;;5.70;2.27;;;4.40;99.90;;;;;;6188672;23;20176;-91
2022/02/01 04:43:24;;;;;;;4.43;2.00;;;4.40;99.90;;;;;;6240275;23;20192;-91
2022/02/01 04:45:56;;;;;;;2.57;1.70;;;4.40;99.90;;;;;;6239625;23;20172;-92
2022/02/01 04:48:30;;;;;;;4.03;1.77;;;4.40;99.90;;;;;;6240862;23;20217;-93
2022/02/01 04:51:02;;;;;;;3.30;2.00;;;4.40;99.90;;;;;;6239049;23;20232;-92
2022/02/01 04:53:35;;;;;;;2.37;1.87;;;4.50;99.90;;;;;;6238066;23;20169;-92
2022/02/01 04:56:09;;;;;;;4.87;1.83;;;4.50;99.90;;;;;;6235727;23;20195;-92
2022/02/01 04:58:43;;;;;;;4.37;1.43;;;4.60;99.90;;;;;;6235838;23;20192;-92
2022/02/01 05:01:16;;;;;;;3.17;2.17;;;4.60;99.90;;;;;;6195195;23;20209;-90
2022/02/01 05:03:49;;;;;;;2.10;1.83;;;4.60;99.90;;;;;;6209131;23;20176;-91
2022/02/01 05:06:23;;;;;;;5.00;1.93;;;4.60;99.90;;;;;;6204780;23;20631;-93
2022/02/01 05:08:54;;;;;;;3.97;2.23;;;4.60;99.90;;;;;;6206698;23;20197;-91
2022/02/01 05:11:28;;;;;;;3.20;1.97;;;4.70;99.90;;;;;;6200003;23;20175;-92
2022/02/01 05:14:09;;;;;;;3.13;2.03;;;4.70;99.90;;;;;;6176972;23;20196;-90
2022/02/01 05:16:55;;;;;;;5.27;2.67;;;4.70;99.90;;;;;;6198502;23;20176;-93
2022/02/01 05:19:54;;;;;;;4.47;2.43;;;4.70;99.90;;;;;;6207313;23;20185;-92
2022/02/01 05:24:56;;;;;;;6.50;2.50;;;4.70;99.90;;;;;;6153522;23;20166;-92
2022/02/01 05:27:30;;;;;;;3.27;2.07;;;4.70;99.90;;;;;;6127308;23;20172;-92
2022/02/01 05:30:00;;;;;;;5.83;2.43;;;4.70;99.90;;;;;;6148962;23;20190;-92
2022/02/01 05:32:31;;;;;;;4.47;2.33;;;4.60;99.90;;;;;;6144223;23;20174;-92
2022/02/01 05:35:02;;;;;;;4.27;2.60;;;4.50;99.90;;;;;;6136362;23;20182;-93
2022/02/01 05:37:33;;;;;;;4.80;2.30;;;4.50;99.90;;;;;;6139460;23;20189;-93
2022/02/01 05:40:08;;;;;;;5.07;2.40;;;4.60;99.90;;;;;;6140203;23;20178;-93
2022/02/01 05:42:45;;;;;;;3.97;2.30;;;4.60;99.90;;;;;;6137680;23;20284;-92
2022/02/01 05:45:17;;;;;;;5.77;2.53;;;4.60;99.90;;;;;;6135204;23;20237;-93
2022/02/01 05:47:56;;;;;;;5.43;1.90;;;4.70;99.90;;;;;;6136878;23;20178;-92
2022/02/01 05:50:27;;;;;;;6.47;2.53;;;4.60;99.90;;;;;;6137919;23;20213;-93
2022/02/01 05:52:59;;;;;;;7.17;2.10;;;4.60;99.90;;;;;;6134990;23;20179;-93
2022/02/01 05:55:32;;;;;;;7.33;2.43;;;4.60;99.90;;;;;;6138115;23;20210;-92
2022/02/01 05:58:04;;;;;;;4.20;2.30;;;4.60;99.90;;;;;;6136788;23;20193;-93
2022/02/01 06:00:35;;;;;;;2.73;1.57;;;4.70;99.90;;;;;;6134361;23;20637;-93
2022/02/01 06:03:06;;;;;;;2.47;1.63;;;4.70;99.90;;;;;;6133979;23;20206;-93
2022/02/01 06:05:39;;;;;;;2.73;1.60;;;4.70;99.90;;;;;;6137744;23;20167;-92
2022/02/01 06:08:11;;;;;;;4.80;1.30;;;4.70;99.90;;;;;;6141073;23;20621;-92
2022/02/01 06:10:42;;;;;;;4.63;1.80;;;4.70;99.90;;;;;;6137480;23;20229;-92
2022/02/01 06:13:15;;;;;;;4.30;1.30;;;4.60;99.90;;;;;;6114552;23;20175;-91
2022/02/01 06:15:46;;;;;;;8.20;1.53;;;4.50;99.90;;;;;;6147535;23;20250;-93
2022/02/01 06:18:17;;;;;;;3.43;1.50;;;4.50;99.90;;;;;;6145525;23;20189;-91
2022/02/01 06:20:48;;;;;;;6.63;1.70;;;4.50;99.90;;;;;;6141875;23;20171;-93
2022/02/01 06:23:20;;;;;;;3.80;1.87;;;4.40;99.90;;;;;;6133155;23;20190;-93
2022/02/01 06:25:52;;;;;;;5.80;1.83;;;4.50;99.90;;;;;;6133788;23;20166;-93
2022/02/01 06:28:25;;;;;;;5.23;1.50;;;4.50;99.90;;;;;;6135003;23;20193;-93
2022/02/01 06:30:58;;;;;;;2.87;1.30;;;4.50;99.90;;;;;;6135940;23;20537;-92
2022/02/01 06:33:32;;;;;;;6.10;1.73;;;4.50;99.90;;;;;;6138610;23;20595;-93
2022/02/01 06:36:03;;;;;;;4.77;1.53;;;4.50;99.90;;;;;;6140181;23;20190;-93
2022/02/01 06:38:34;;;;;;;7.37;1.97;;;4.40;99.90;;;;;;6148285;23;20166;-93
2022/02/01 06:41:05;;;;;;;4.67;1.70;;;4.30;99.90;;;;;;6148190;23;20633;-94
2022/02/01 06:43:38;;;;;;;4.50;1.90;;;4.20;99.90;;;;;;6142617;23;20230;-94
2022/02/01 06:46:09;;;;;;;6.00;2.13;;;4.10;99.90;;;;;;6147237;23;20182;-93
2022/02/01 06:48:41;;;;;;;6.73;1.77;;;4.10;99.90;;;;;;6149901;23;20218;-93
2022/02/01 06:51:17;;;;;;;3.57;1.93;;;4.10;99.90;;;;;;6140353;23;20206;-94
2022/02/01 06:53:48;;;;;;;4.77;2.20;;;4.10;99.90;;;;;;6137362;23;20182;-94
2022/02/01 06:56:28;;;;;;;6.00;1.73;;;4.10;99.90;;;;;;6138746;23;20198;-93
2022/02/01 06:59:02;;;;;;;5.53;1.87;;;4.00;99.90;;;;;;6153651;23;20210;-92
2022/02/01 07:01:34;;;;;;;2.90;1.53;;;4.00;99.90;;;;;;6153646;23;20181;-94
2022/02/01 07:04:06;;;;;;;6.50;1.80;;;4.00;99.90;;;;;;6153052;23;20186;-93
2022/02/01 07:06:37;;;;;;;9.43;2.23;;;4.00;99.90;;;;;;6145429;23;20178;-93
2022/02/01 07:09:08;;;;;;;4.03;1.70;;;4.00;99.90;;;;;;6142354;23;20174;-94
2022/02/01 07:11:39;;;;;;;5.23;1.70;;;4.00;99.90;;;;;;6139576;23;20226;-94
2022/02/01 07:14:14;;;;;;;4.73;1.63;;;4.00;99.90;;;;;;6135115;23;20171;-91
2022/02/01 07:16:45;;;;;;;4.73;1.83;;;4.00;99.90;;;;;;6134322;23;20171;-93
2022/02/01 07:19:16;;;;;;;4.43;2.07;;;4.00;99.90;;;;;;6142017;23;20190;-90
2022/02/01 07:21:48;;;;;;;3.80;1.70;;;4.10;99.90;;;;;;6152203;23;20193;-91
2022/02/01 07:24:27;;;;;;;4.17;1.67;;;4.10;99.90;;;;;;6152414;23;20194;-92
2022/02/01 07:27:08;;;;;;;5.20;1.67;;;4.10;99.90;;;;;;6120794;23;20174;-91
2022/02/01 07:29:41;;;;;;;6.70;1.83;;;4.10;99.90;;;;;;6141748;23;20315;-92
2022/02/01 07:32:12;;;;;;;6.57;2.10;;;4.10;99.90;;;;;;6137058;23;20171;-93
2022/02/01 07:34:43;;;;;;;9.03;2.17;;;4.10;99.90;;;;;;6134430;23;20205;-94
2022/02/01 07:37:15;;;;;;;7.87;1.90;;;4.10;99.90;;;;;;6137534;23;20267;-93
2022/02/01 07:39:47;;;;;;;7.43;1.90;;;4.10;99.90;;;;;;6134171;23;20200;-92
2022/02/01 07:42:18;;;;;;;6.37;1.70;;;4.20;99.90;;;;;;6149057;23;20182;-93
2022/02/01 07:44:51;;;;;;;5.77;1.90;;;4.10;99.90;;;;;;6153016;23;20158;-93
2022/02/01 07:47:22;;;;;;;7.60;2.23;;;4.10;99.90;;;;;;6123173;23;20179;-93
2022/02/01 07:49:54;;;;;;;5.53;1.90;;;4.10;99.90;;;;;;6135210;23;20170;-92
2022/02/01 07:52:27;;;;;;;7.77;2.10;;;4.10;99.90;;;;;;6135042;23;20648;-92
2022/02/01 07:54:59;;;;;;;7.77;2.33;;;4.10;99.90;;;;;;6108701;23;20171;-92
2022/02/01 07:57:30;;;;;;;3.83;1.83;;;4.10;99.90;;;;;;6140078;23;20181;-93
2022/02/01 08:00:04;;;;;;;6.83;1.90;;;4.20;99.90;;;;;;6151053;23;20178;-92
2022/02/01 08:02:36;;;;;;;4.97;1.90;;;4.20;99.90;;;;;;6150880;23;20174;-92
2022/02/01 08:05:24;;;;;;;5.83;2.17;;;4.30;99.90;;;;;;6134061;23;20185;-92
2022/02/01 08:07:55;;;;;;;3.07;1.67;;;4.30;99.90;;;;;;6133656;23;20172;-91
2022/02/01 08:10:34;;;;;;;3.67;1.40;;;4.30;99.90;;;;;;6134409;23;20206;-93
2022/02/01 08:21:54;;;;;;;2.60;1.63;;;4.10;99.90;;;;;;6222802;23;20269;-92
2022/02/01 08:24:25;;;;;;;3.93;1.83;;;4.00;99.90;;;;;;6222757;23;20192;-93
2022/02/01 08:26:56;;;;;;;9.27;1.93;;;3.90;99.90;;;;;;6221495;23;20199;-93
2022/02/01 08:29:29;;;;;;;7.70;1.93;;;3.80;99.90;;;;;;6224122;23;20187;-94
2022/02/01 08:32:02;;;;;;;4.67;2.00;;;3.80;99.90;;;;;;6222311;23;20235;-92
2022/02/01 08:34:34;;;;;;;6.83;2.37;;;3.70;99.90;;;;;;6196038;23;20172;-93
2022/02/01 08:37:06;;;;;;;4.93;1.87;;;3.70;99.90;;;;;;6223213;23;20168;-92
2022/02/01 08:39:37;;;;;;;10.10;2.47;;;3.70;99.90;;;;;;6231154;23;20176;-93
2022/02/01 08:42:08;;;;;;;5.37;2.20;;;3.60;99.90;;;;;;6229352;23;20164;-94
2022/02/01 08:44:40;;;;;;;4.43;2.10;;;3.60;99.90;;;;;;6223402;23;20196;-93
2022/02/01 08:47:14;;;;;;;4.97;2.50;;;3.70;99.90;;;;;;6223104;23;20176;-93
2022/02/01 08:49:45;;;;;;;6.87;2.30;;;3.70;99.90;;;;;;6225634;23;20200;-93
2022/02/01 08:52:26;;;;;;;7.27;2.40;;;3.70;99.90;;;;;;6241695;23;20212;-94
2022/02/01 08:54:57;;;;;;;7.47;2.37;;;3.70;99.90;;;;;;6242059;23;20156;-90
2022/02/01 08:57:31;;;;;;;6.80;2.30;;;3.80;99.90;;;;;;6240966;23;20160;-93
2022/02/01 09:00:05;;;;;;;5.40;2.37;;;3.70;99.90;;;;;;6240859;23;20305;-94
2022/02/01 09:02:40;;;;;;;8.33;3.30;;;3.60;99.90;;;;;;6242711;23;20153;-95
2022/02/01 09:05:13;;;;;;;7.50;2.70;;;3.60;99.90;;;;;;6242266;23;20208;-95
2022/02/01 09:07:46;;;;;;;5.30;2.47;;;3.60;99.90;;;;;;6241623;23;20179;-94
2022/02/01 09:10:18;;;;;;;9.57;2.30;;;3.60;99.90;;;;;;6216982;23;20160;-93
2022/02/01 09:12:50;;;;;;;5.70;2.10;;;3.60;99.90;;;;;;6241630;23;20207;-94
2022/02/01 09:15:26;;;;;;;4.73;2.00;;;3.60;99.90;;;;;;6241127;23;20164;-94
2022/02/01 09:18:00;;;;;;;6.40;1.90;;;3.60;99.90;;;;;;6241538;23;20164;-93
2022/02/01 09:20:33;;;;;;;8.27;2.10;;;3.50;99.90;;;;;;6242200;23;20162;-94
2022/02/01 09:23:04;;;;;;;10.00;2.83;;;3.50;99.90;;;;;;6240353;23;20168;-93
2022/02/01 09:25:36;;;;;;;7.40;2.20;;;3.50;99.90;;;;;;6238162;23;20168;-94
2022/02/01 09:28:11;;;;;;;8.77;2.77;;;3.50;99.90;;;;;;6229770;22;20208;-92
2022/02/01 09:30:43;;;;;;;9.17;2.17;;;3.50;99.90;;;;;;6237966;23;20176;-94
2022/02/01 09:33:16;;;;;;;6.27;1.97;;;3.40;99.90;;;;;;6211618;23;20172;-94
2022/02/01 09:35:47;;;;;;;9.23;2.13;;;3.40;99.90;;;;;;6208907;23;20242;-92
2022/02/01 09:38:18;;;;;;;6.83;2.40;;;3.40;99.90;;;;;;6228585;23;20258;-95
2022/02/01 09:40:51;;;;;;;7.77;2.17;;;3.40;99.90;;;;;;6203266;23;20169;-93
2022/02/01 09:43:23;;;;;;;8.17;2.77;;;3.40;99.90;;;;;;6228319;23;20180;-93
2022/02/01 09:45:55;;;;;;;9.13;2.20;;;3.30;99.90;;;;;;6233213;23;20176;-93
2022/02/01 09:48:48;;;;;;;6.03;2.10;;;3.30;99.90;;;;;;6231202;23;20180;-94
2022/02/01 09:51:19;;;;;;;5.43;2.30;;;3.20;99.90;;;;;;6229861;23;20199;-93
2022/02/01 09:54:11;;;;;;;5.00;2.40;;;3.20;99.90;;;;;;6228039;23;20200;-94
2022/02/01 09:56:42;;;;;;;10.67;2.60;;;3.10;99.90;;;;;;6213490;23;20160;-94
2022/02/01 09:59:18;;;;;;;8.47;2.47;;;3.10;99.90;;;;;;6212996;23;20169;-94
2022/02/01 10:01:55;;;;;;;7.87;2.80;;;3.00;99.90;;;;;;6206534;23;20191;-93
2022/02/01 10:04:29;;;;;;;7.47;2.30;;;3.00;99.90;;;;;;6231402;23;20177;-93
2022/02/01 10:07:13;;;;;;;6.87;2.07;;;2.90;99.90;;;;;;6238531;23;20202;-93
2022/02/01 10:09:52;;;;;;;6.87;2.10;;;2.90;99.90;;;;;;6232135;23;20638;-93
2022/02/01 10:12:26;;;;;;;7.57;1.67;;;2.90;99.90;;;;;;6202120;23;20196;-94
2022/02/01 10:14:58;;;;;;;5.40;1.80;;;2.90;99.90;;;;;;6227714;23;20234;-94
2022/02/01 10:17:37;;;;;;;9.03;2.03;;;2.90;99.90;;;;;;6229458;23;20176;-93
2022/02/01 10:20:13;;;;;;;6.43;1.63;;;2.90;99.90;;;;;;6228323;23;20203;-93
2022/02/01 10:22:45;;;;;;;5.13;2.20;;;2.90;99.90;;;;;;6226622;23;20229;-94
2022/02/01 10:25:28;;;;;;;7.77;2.03;;;2.80;99.90;;;;;;6227218;23;20199;-93
2022/02/01 10:28:01;;;;;;;5.97;1.87;;;2.80;99.90;;;;;;6223958;23;20203;-93
2022/02/01 10:30:51;;;;;;;4.17;1.67;;;2.80;99.90;;;;;;6226514;23;20263;-94
2022/02/01 10:36:40;;;;;;;6.30;1.70;;;2.70;99.90;;;;;;6133347;23;20530;-92
2022/02/01 10:39:29;;;;;;;6.13;1.67;;;2.70;99.90;;;;;;6216522;23;20181;-93
2022/02/01 10:42:02;;;;;;;3.77;1.77;;;2.80;99.90;;;;;;6225452;23;20552;-92
2022/02/01 10:44:40;;;;;;;6.17;2.43;;;2.80;99.90;;;;;;6225189;23;20192;-92
2022/02/01 10:47:13;;;;;;;4.20;1.90;;;2.90;99.90;;;;;;6225157;23;20187;-93
2022/02/01 10:50:03;;;;;;;7.03;2.37;;;2.90;99.90;;;;;;6226229;23;20224;-91
2022/02/01 10:52:37;;;;;;;7.80;2.20;;;3.00;99.90;;;;;;6225245;23;20276;-93
2022/02/01 10:55:10;;;;;;;7.67;1.90;;;3.00;99.90;;;;;;6224647;23;20179;-93
2022/02/01 10:57:42;;;;;;;6.30;2.17;;;3.10;99.90;;;;;;6224728;23;20185;-93
2022/02/01 11:00:18;;;;;;;9.17;1.93;;;3.10;99.90;;;;;;6225538;23;20717;-92
2022/02/01 11:02:49;;;;;;;6.50;1.73;;;3.20;99.90;;;;;;6224845;23;20230;-93
2022/02/01 11:05:25;;;;;;;8.93;2.00;;;3.20;99.90;;;;;;6224921;23;20172;-93
2022/02/01 11:08:11;;;;;;;6.13;1.73;;;3.20;99.90;;;;;;6224645;23;20169;-94
2022/02/01 11:10:46;;;;;;;5.47;2.10;;;3.20;99.90;;;;;;6225101;23;20516;-94
2022/02/01 11:13:18;;;;;;;4.27;1.67;;;3.10;99.90;;;;;;6225310;23;20275;-94
2022/02/01 11:15:59;;;;;;;3.67;1.60;;;3.20;99.90;;;;;;6225021;23;20175;-94
2022/02/01 11:18:32;;;;;;;6.47;1.60;;;3.10;99.90;;;;;;6223593;23;20168;-94
2022/02/01 11:21:12;;;;;;;10.53;2.27;;;3.10;99.90;;;;;;6224727;23;20177;-93
2022/02/01 11:23:52;;;;;;;10.63;1.80;;;3.10;99.90;;;;;;6226533;23;20461;-93
2022/02/01 11:26:32;;;;;;;5.47;1.63;;;3.10;99.90;;;;;;6225170;23;20167;-93
2022/02/01 11:29:29;;;;;;;9.20;1.87;;;3.10;99.90;;;;;;6223555;23;20184;-91
2022/02/01 11:32:04;;;;;;;10.87;1.80;;;3.10;99.90;;;;;;6224372;23;20195;-94
2022/02/01 11:35:04;;;;;;;7.13;2.17;;;3.10;99.90;;;;;;6223634;23;20266;-93
2022/02/01 11:38:02;;;;;;;7.27;2.23;;;3.20;99.90;;;;;;6223646;23;20272;-93
2022/02/01 11:40:41;;;;;;;6.30;2.03;;;3.20;99.90;;;;;;6224490;23;20615;-93
2022/02/01 11:43:34;;;;;;;8.30;1.80;;;3.20;99.90;;;;;;6224376;23;20235;-93
2022/02/01 11:46:08;;;;;;;7.40;1.80;;;3.20;99.90;;;;;;6198027;23;20260;-93
2022/02/01 11:48:41;;;;;;;11.80;1.63;;;3.20;99.90;;;;;;6222380;23;20180;-93
2022/02/01 11:51:16;;;;;;;4.43;1.80;;;3.20;99.90;;;;;;6197147;23;20176;-93
2022/02/01 11:53:48;;;;;;;4.53;1.80;;;3.30;99.90;;;;;;6222092;23;20228;-93
2022/02/01 11:56:31;;;;;;;7.80;2.00;;;3.30;99.90;;;;;;6222604;23;20238;-94
2022/02/01 11:59:06;;;;;;;8.17;1.73;;;3.20;99.90;;;;;;6222813;23;20546;-93
2022/02/01 12:01:39;;;;;;;7.80;1.53;;;3.20;99.90;;;;;;6222721;23;20168;-95
2022/02/01 12:04:16;;;;;;;4.67;1.43;;;3.30;99.90;;;;;;6222506;23;20681;-94
2022/02/01 12:06:55;;;;;;;4.47;1.40;;;3.30;99.90;;;;;;6222015;23;20245;-94
2022/02/01 12:09:26;;;;;;;5.90;1.87;;;3.20;99.90;;;;;;6225225;23;20172;-93
2022/02/01 12:12:02;;;;;;;4.50;1.50;;;3.20;99.90;;;;;;6222944;23;20203;-94
2022/02/01 12:14:33;;;;;;;5.37;1.53;;;3.20;99.90;;;;;;6227377;23;20172;-94
2022/02/01 12:17:04;;;;;;;4.27;1.57;;;3.20;99.90;;;;;;6228854;23;20176;-94
2022/02/01 12:19:39;;;;;;;6.20;1.47;;;3.20;99.90;;;;;;6239398;23;20168;-94
2022/02/01 12:22:36;;;;;;;5.23;1.80;;;3.20;99.90;;;;;;6239597;23;20168;-93
2022/02/01 12:25:10;;;;;;;5.17;1.43;;;3.20;99.90;;;;;;6226248;23;20168;-93
2022/02/01 12:27:44;;;;;;;7.00;1.43;;;3.20;99.90;;;;;;6224082;23;20222;-93
2022/02/01 12:30:15;;;;;;;4.07;1.33;;;3.10;99.90;;;;;;6224519;23;20190;-94
2022/02/01 12:32:57;;;;;;;4.63;1.70;;;3.10;99.90;;;;;;6239819;23;20223;-94
2022/02/01 12:35:33;;;;;;;3.67;1.40;;;3.10;99.90;;;;;;6241077;23;20195;-94
2022/02/01 12:38:09;;;;;;;6.00;1.67;;;3.10;99.90;;;;;;6240276;23;20222;-93
2022/02/01 12:40:41;;;;;;;9.50;1.33;;;3.20;99.90;;;;;;6237309;23;20167;-92
2022/02/01 12:43:19;;;;;;;5.80;1.47;;;3.20;99.90;;;;;;6235899;23;20177;-93
2022/02/01 12:46:02;;;;;;;4.07;1.30;;;3.20;99.90;;;;;;6233364;23;20179;-92
2022/02/01 12:48:35;;;;;;;3.83;1.27;;;3.20;99.90;;;;;;6228436;23;20217;-92
2022/02/01 12:51:08;;;;;;;7.27;1.60;;;3.10;99.90;;;;;;6222455;23;20164;-93
2022/02/01 12:53:44;;;;;;;6.33;1.03;;;3.00;99.90;;;;;;6222017;23;20677;-93
2022/02/01 12:56:17;;;;;;;9.03;1.60;;;3.00;99.90;;;;;;6221943;23;20165;-93
2022/02/01 12:58:58;;;;;;;6.27;1.17;;;3.20;99.90;;;;;;6225198;23;20172;-93
2022/02/01 13:01:34;;;;;;;5.67;1.50;;;3.20;99.90;;;;;;6221474;23;20180;-93
2022/02/01 13:04:07;;;;;;;5.23;1.20;;;3.10;99.90;;;;;;6221630;23;20191;-92
2022/02/01 13:06:46;;;;;;;4.50;1.23;;;3.10;99.90;;;;;;6222387;23;20168;-93
2022/02/01 13:15:25;;;;;;;9.47;1.60;;;2.90;99.90;;;;;;6236011;23;20271;-95
2022/02/01 13:18:22;;;;;;;4.27;1.50;;;2.80;99.90;;;;;;6222111;23;20180;-93
2022/02/01 13:21:02;;;;;;;6.03;1.43;;;2.70;99.90;;;;;;6221366;23;20176;-92
2022/02/01 13:23:39;;;;;;;5.90;1.60;;;2.70;99.90;;;;;;6222164;23;20171;-93
2022/02/01 13:26:14;;;;;;;4.37;1.53;;;2.70;99.90;;;;;;6221729;23;20169;-93
2022/02/01 13:29:06;;;;;;;7.47;1.70;;;2.70;99.90;;;;;;6221702;23;20188;-93
2022/02/01 13:31:42;;;;;;;6.17;1.73;;;2.60;99.90;;;;;;6225289;23;20167;-96
2022/02/01 13:34:14;;;;;;;8.77;1.70;;;2.50;99.90;;;;;;6237322;23;20215;-94
2022/02/01 13:36:49;;;;;;;5.07;2.07;;;2.50;99.90;;;;;;6234660;23;20179;-93
2022/02/01 13:39:29;;;;;;;5.10;2.03;;;2.50;99.90;;;;;;6209905;23;20178;-93
2022/02/01 13:42:02;;;;;;;4.13;2.20;;;2.40;99.90;;;;;;6208897;23;20210;-93
2022/02/01 13:44:54;;;;;;;6.73;1.87;;;2.40;99.90;;;;;;6233973;23;20187;-94
2022/02/01 13:47:36;;;;;;;9.93;2.27;;;2.40;99.90;;;;;;6222831;23;20213;-94
2022/02/01 13:50:14;;;;;;;8.33;1.87;;;2.30;99.90;;;;;;6223349;23;20182;-95
2022/02/01 13:52:56;;;;;;;3.90;2.37;;;2.30;99.90;;;;;;6224746;23;20604;-90
2022/02/01 13:55:30;;;;;;;6.73;2.17;;;2.30;99.90;;;;;;6223851;23;20702;-92
2022/02/01 13:58:08;;;;;;;4.97;2.10;;;2.30;99.90;;;;;;6222674;23;20195;-94
2022/02/01 14:00:42;;;;;;;9.47;2.33;;;2.20;99.90;;;;;;6221906;23;20173;-94
2022/02/01 14:06:44;;;;;;;7.80;1.83;;;2.20;99.90;;;;;;5063409;27;2850969;-93
2022/02/01 14:09:21;;;;;;;6.67;1.70;;;2.20;99.90;;;;;;5140363;28;20204;-94
2022/02/01 14:12:09;;;;;;;5.73;2.30;;;2.20;99.90;;;;;;5139659;28;20204;-94
2022/02/01 14:29:07;;;;;;;7.47;2.50;;;2.10;99.90;;;;;;5133247;27;20707;-93
2022/02/01 14:34:38;;;;;;;6.73;2.57;;;2.00;99.90;;;;;;5093823;28;20293;-93
2022/02/01 14:37:40;;;;;;;11.57;2.67;;;2.00;99.90;;;;;;5151045;27;20212;-92
2022/02/01 14:43:23;;;;;;;5.77;2.37;;;2.00;99.90;;;;;;5132492;28;20206;-94
2022/02/01 14:45:55;;;;;;;5.10;2.20;;;2.00;99.90;;;;;;5122005;28;20249;-93
2022/02/01 14:48:26;;;;;;;7.40;2.10;;;2.00;99.90;;;;;;5117396;28;20234;-93
2022/02/01 14:50:57;;;;;;;8.97;2.70;;;2.00;99.90;;;;;;5117455;28;20258;-95
2022/02/01 14:53:28;;;;;;;8.97;2.60;;;1.90;99.90;;;;;;5127094;28;20214;-93
2022/02/01 14:56:09;;;;;;;8.23;3.17;;;1.90;99.90;;;;;;4777050;28;9999984;-93
2022/02/01 15:04:35;;;;;;;7.63;2.80;;;2.00;99.90;;;;;;5133024;27;20221;-93
2022/02/01 15:07:14;;;;;;;6.67;3.20;;;2.00;99.90;;;;;;5155793;27;20292;-94
2022/02/01 15:12:43;;;;;;;8.93;3.10;;;1.90;99.90;;;;;;5137249;28;20217;-93
2022/02/01 15:15:20;;;;;;;8.50;2.67;;;1.90;99.90;;;;;;5143845;28;20213;-95
2022/02/01 15:17:51;;;;;;;8.20;3.13;;;1.90;99.90;;;;;;5126373;28;20194;-94
2022/02/01 15:20:23;;;;;;;9.30;2.83;;;1.80;99.90;;;;;;5134286;28;20247;-94
2022/02/01 15:22:55;;;;;;;6.77;3.10;;;1.90;99.90;;;;;;5135584;28;20182;-92
2022/02/01 15:25:29;;;;;;;10.30;3.00;;;1.90;99.90;;;;;;5116000;28;20212;-92
2022/02/01 15:28:03;;;;;;;6.60;2.40;;;1.90;99.90;;;;;;5116501;28;20205;-95
2022/02/01 15:30:37;;;;;;;6.40;2.50;;;1.90;99.90;;;;;;5116451;28;20202;-93
2022/02/01 15:33:11;;;;;;;9.90;3.00;;;1.90;99.90;;;;;;5132154;28;20231;-93
2022/02/01 15:35:43;;;;;;;6.13;2.50;;;1.90;99.90;;;;;;5133437;28;20209;-94
2022/02/01 15:38:17;;;;;;;7.60;2.20;;;1.90;99.90;;;;;;5120637;28;20237;-93
2022/02/01 15:58:26;;;;;;;8.03;2.13;;;2.20;99.90;;;;;;5133349;28;20206;-94
2022/02/01 16:01:03;;;;;;;3.93;1.57;;;2.20;99.90;;;;;;5134103;28;20205;-93
2022/02/01 16:03:41;;;;;;;3.47;1.40;;;2.30;99.90;;;;;;5101156;28;20252;-92
2022/02/01 16:06:12;;;;;;;4.73;2.07;;;2.40;99.90;;;;;;5115604;28;20238;-93
2022/02/01 16:08:46;;;;;;;6.17;1.67;;;2.30;99.90;;;;;;5137489;28;20197;-93